BGTL

Thule Air Base Airport

Thule, Greenland

BGTL 201209Z AUTO 00000KT 9999 SCT013 OVC060 M07/M08 A2975 RMK AO2 SNE07SNB08E09 CIG 020 RWY26 SLP061

Observed Flight Rules
Oct-20 @ 12:09 UTC (22 minutes ago)
 
Visual Flight Rules
Wind Visibility Clouds
Calm 10,000+ meters
  • Scattered at 1,300' AGL
  • Overcast at 6,000' AGL
Temperatures Readings
Current -7°C / 19°F
Dewpoint -8°C / 18°F
Humidity 93%
Altimeter 29.75" Hg
Pressure 1006.1 hPa
Elevation 77
Observed Flight Rules
Oct-20 @ 12:09 UTC
(22 minutes ago)
 
VFR
Wind Visibility
Calm 10,000+ meters
Clouds
  • Scattered at 1,300' AGL
  • Overcast at 6,000' AGL
Temperature Dewpoint
-7°C / 19°F -8°C / 18°F
Humidity Altimeter Pressure
93% 29.75" Hg 1006.1 hPa